sensor_id;sensor_type;location;lat;lon;timestamp;temperature;humidity
14521;DHT22;7347;50.844;4.490;2023-04-06T07:23:55;8.50;99.90
14521;DHT22;7347;50.844;4.490;2023-04-06T07:26:22;8.40;99.90
14521;DHT22;7347;50.844;4.490;2023-04-06T07:28:49;8.50;99.90
14521;DHT22;7347;50.844;4.490;2023-04-06T07:31:16;8.60;99.90
14521;DHT22;7347;50.844;4.490;2023-04-06T07:33:43;8.50;99.90
14521;DHT22;7347;50.844;4.490;2023-04-06T07:36:10;8.50;99.90
14521;DHT22;7347;50.844;4.490;2023-04-06T07:38:37;8.40;99.90
14521;DHT22;7347;50.844;4.490;2023-04-06T07:41:06;8.40;99.90
14521;DHT22;7347;50.844;4.490;2023-04-06T07:43:33;8.40;99.90
14521;DHT22;7347;50.844;4.490;2023-04-06T07:46:00;8.40;99.90
14521;DHT22;7347;50.844;4.490;2023-04-06T07:48:27;8.60;99.90
14521;DHT22;7347;50.844;4.490;2023-04-06T07:51:01;8.60;99.90
14521;DHT22;7347;50.844;4.490;2023-04-06T07:53:28;8.70;99.90
14521;DHT22;7347;50.844;4.490;2023-04-06T07:55:55;8.80;99.90
14521;DHT22;7347;50.844;4.490;2023-04-06T07:58:24;8.90;99.90
14521;DHT22;7347;50.844;4.490;2023-04-06T08:00:51;9.00;99.90
14521;DHT22;7347;50.844;4.490;2023-04-06T08:03:18;9.00;99.90
14521;DHT22;7347;50.844;4.490;2023-04-06T08:05:46;9.00;99.90
14521;DHT22;7347;50.844;4.490;2023-04-06T08:08:13;9.10;99.90
14521;DHT22;7347;50.844;4.490;2023-04-06T08:10:41;9.10;99.90
14521;DHT22;7347;50.844;4.490;2023-04-06T08:13:08;9.10;99.90
14521;DHT22;7347;50.844;4.490;2023-04-06T08:15:36;9.00;99.90
14521;DHT22;7347;50.844;4.490;2023-04-06T08:18:03;8.90;99.90
14521;DHT22;7347;50.844;4.490;2023-04-06T08:20:30;8.90;99.90
14521;DHT22;7347;50.844;4.490;2023-04-06T08:22:57;9.00;99.90
14521;DHT22;7347;50.844;4.490;2023-04-06T08:25:24;9.00;99.90
14521;DHT22;7347;50.844;4.490;2023-04-06T08:27:51;8.90;99.90
14521;DHT22;7347;50.844;4.490;2023-04-06T08:30:18;8.80;99.90
14521;DHT22;7347;50.844;4.490;2023-04-06T08:32:46;8.80;99.90
14521;DHT22;7347;50.844;4.490;2023-04-06T08:35:14;8.80;99.90
14521;DHT22;7347;50.844;4.490;2023-04-06T08:37:40;8.90;99.90
14521;DHT22;7347;50.844;4.490;2023-04-06T08:40:08;9.00;99.90
14521;DHT22;7347;50.844;4.490;2023-04-06T08:42:39;8.90;99.90
14521;DHT22;7347;50.844;4.490;2023-04-06T08:45:08;8.90;99.90
14521;DHT22;7347;50.844;4.490;2023-04-06T08:47:36;8.90;99.90
14521;DHT22;7347;50.844;4.490;2023-04-06T08:50:07;8.90;99.90
14521;DHT22;7347;50.844;4.490;2023-04-06T08:52:34;8.90;99.90
14521;DHT22;7347;50.844;4.490;2023-04-06T08:55:01;8.90;99.90
14521;DHT22;7347;50.844;4.490;2023-04-06T08:57:29;9.00;99.90
14521;DHT22;7347;50.844;4.490;2023-04-06T08:59:58;9.00;99.90
14521;DHT22;7347;50.844;4.490;2023-04-06T09:02:27;9.10;99.90
14521;DHT22;7347;50.844;4.490;2023-04-06T09:04:54;9.10;99.90
14521;DHT22;7347;50.844;4.490;2023-04-06T09:07:22;9.10;99.90
14521;DHT22;7347;50.844;4.490;2023-04-06T09:09:50;9.10;99.90
14521;DHT22;7347;50.844;4.490;2023-04-06T09:12:24;9.30;99.90
14521;DHT22;7347;50.844;4.490;2023-04-06T09:14:52;9.30;99.90
14521;DHT22;7347;50.844;4.490;2023-04-06T09:17:23;9.50;99.90
14521;DHT22;7347;50.844;4.490;2023-04-06T09:19:50;9.50;99.90
14521;DHT22;7347;50.844;4.490;2023-04-06T09:22:17;9.70;99.90
14521;DHT22;7347;50.844;4.490;2023-04-06T09:24:47;9.80;99.90
14521;DHT22;7347;50.844;4.490;2023-04-06T09:27:14;9.60;99.90
14521;DHT22;7347;50.844;4.490;2023-04-06T09:29:42;9.60;99.90
14521;DHT22;7347;50.844;4.490;2023-04-06T09:32:11;9.60;99.90
14521;DHT22;7347;50.844;4.490;2023-04-06T09:34:42;9.60;99.90
14521;DHT22;7347;50.844;4.490;2023-04-06T09:37:14;9.60;99.90
14521;DHT22;7347;50.844;4.490;2023-04-06T09:39:41;9.40;99.90
14521;DHT22;7347;50.844;4.490;2023-04-06T09:42:11;9.50;99.90
14521;DHT22;7347;50.844;4.490;2023-04-06T09:44:38;9.40;99.90
14521;DHT22;7347;50.844;4.490;2023-04-06T09:47:06;9.40;99.90
14521;DHT22;7347;50.844;4.490;2023-04-06T09:49:34;9.20;99.90
14521;DHT22;7347;50.844;4.490;2023-04-06T09:52:03;9.00;99.90
14521;DHT22;7347;50.844;4.490;2023-04-06T09:54:31;8.80;99.90
14521;DHT22;7347;50.844;4.490;2023-04-06T09:57:04;8.90;99.90
14521;DHT22;7347;50.844;4.490;2023-04-06T09:59:39;8.90;99.90
14521;DHT22;7347;50.844;4.490;2023-04-06T10:02:18;9.10;99.90
14521;DHT22;7347;50.844;4.490;2023-04-06T10:04:53;9.10;99.90
14521;DHT22;7347;50.844;4.490;2023-04-06T10:07:22;9.10;99.90
14521;DHT22;7347;50.844;4.490;2023-04-06T10:09:50;9.30;99.90
14521;DHT22;7347;50.844;4.490;2023-04-06T10:12:17;9.30;99.90
14521;DHT22;7347;50.844;4.490;2023-04-06T10:14:46;9.20;99.90
14521;DHT22;7347;50.844;4.490;2023-04-06T10:17:13;9.10;99.90
14521;DHT22;7347;50.844;4.490;2023-04-06T10:19:46;9.00;99.90
14521;DHT22;7347;50.844;4.490;2023-04-06T10:22:22;9.20;99.90
14521;DHT22;7347;50.844;4.490;2023-04-06T10:24:50;9.20;99.90
14521;DHT22;7347;50.844;4.490;2023-04-06T10:27:27;9.20;99.90
14521;DHT22;7347;50.844;4.490;2023-04-06T10:30:02;9.30;99.90
14521;DHT22;7347;50.844;4.490;2023-04-06T10:32:33;9.20;99.90
14521;DHT22;7347;50.844;4.490;2023-04-06T10:35:08;9.20;99.90
14521;DHT22;7347;50.844;4.490;2023-04-06T10:37:51;9.20;99.90
14521;DHT22;7347;50.844;4.490;2023-04-06T10:40:20;9.20;99.90
14521;DHT22;7347;50.844;4.490;2023-04-06T10:42:48;9.20;99.90
14521;DHT22;7347;50.844;4.490;2023-04-06T10:45:21;9.20;99.90
14521;DHT22;7347;50.844;4.490;2023-04-06T10:47:49;9.20;99.90
14521;DHT22;7347;50.844;4.490;2023-04-06T10:50:16;9.30;99.90
14521;DHT22;7347;50.844;4.490;2023-04-06T10:52:45;9.50;99.90
14521;DHT22;7347;50.844;4.490;2023-04-06T10:55:13;9.70;99.90
14521;DHT22;7347;50.844;4.490;2023-04-06T10:57:41;9.70;99.90
14521;DHT22;7347;50.844;4.490;2023-04-06T11:00:11;9.60;99.90
14521;DHT22;7347;50.844;4.490;2023-04-06T11:02:39;9.50;99.90
14521;DHT22;7347;50.844;4.490;2023-04-06T11:05:07;9.40;99.90
14521;DHT22;7347;50.844;4.490;2023-04-06T11:07:34;9.50;99.90
14521;DHT22;7347;50.844;4.490;2023-04-06T11:10:01;9.40;99.90
14521;DHT22;7347;50.844;4.490;2023-04-06T11:12:28;9.40;99.90
14521;DHT22;7347;50.844;4.490;2023-04-06T11:14:58;9.40;99.90
14521;DHT22;7347;50.844;4.490;2023-04-06T11:17:29;9.50;99.90
14521;DHT22;7347;50.844;4.490;2023-04-06T11:19:58;9.70;99.90
14521;DHT22;7347;50.844;4.490;2023-04-06T11:22:26;9.60;99.90
14521;DHT22;7347;50.844;4.490;2023-04-06T11:24:53;9.60;99.90
14521;DHT22;7347;50.844;4.490;2023-04-06T11:27:31;9.60;99.90
14521;DHT22;7347;50.844;4.490;2023-04-06T11:29:58;9.60;99.90
14521;DHT22;7347;50.844;4.490;2023-04-06T11:32:25;9.60;99.90
14521;DHT22;7347;50.844;4.490;2023-04-06T11:34:52;9.80;99.90
14521;DHT22;7347;50.844;4.490;2023-04-06T11:37:21;10.10;99.90
14521;DHT22;7347;50.844;4.490;2023-04-06T11:39:48;10.00;99.90
14521;DHT22;7347;50.844;4.490;2023-04-06T11:42:22;10.00;99.90
14521;DHT22;7347;50.844;4.490;2023-04-06T11:44:51;10.00;99.90
14521;DHT22;7347;50.844;4.490;2023-04-06T11:47:19;10.10;99.90
14521;DHT22;7347;50.844;4.490;2023-04-06T11:49:47;10.20;99.90
14521;DHT22;7347;50.844;4.490;2023-04-06T11:52:16;10.50;99.90
14521;DHT22;7347;50.844;4.490;2023-04-06T11:54:46;10.50;99.90
14521;DHT22;7347;50.844;4.490;2023-04-06T11:57:13;10.60;99.90
14521;DHT22;7347;50.844;4.490;2023-04-06T11:59:42;10.60;99.90
14521;DHT22;7347;50.844;4.490;2023-04-06T12:02:09;10.70;99.90
14521;DHT22;7347;50.844;4.490;2023-04-06T12:04:36;10.70;99.90
14521;DHT22;7347;50.844;4.490;2023-04-06T12:07:04;10.60;99.90
14521;DHT22;7347;50.844;4.490;2023-04-06T12:09:31;10.80;99.90
14521;DHT22;7347;50.844;4.490;2023-04-06T12:12:01;10.70;99.90
14521;DHT22;7347;50.844;4.490;2023-04-06T12:14:28;10.90;99.90
14521;DHT22;7347;50.844;4.490;2023-04-06T12:16:56;10.70;99.90
14521;DHT22;7347;50.844;4.490;2023-04-06T12:19:23;10.60;99.90
14521;DHT22;7347;50.844;4.490;2023-04-06T12:21:51;10.70;99.90
14521;DHT22;7347;50.844;4.490;2023-04-06T12:24:18;10.60;99.90
14521;DHT22;7347;50.844;4.490;2023-04-06T12:26:46;10.60;99.90
14521;DHT22;7347;50.844;4.490;2023-04-06T12:29:14;10.60;99.90
14521;DHT22;7347;50.844;4.490;2023-04-06T12:31:41;10.80;99.90
14521;DHT22;7347;50.844;4.490;2023-04-06T12:34:10;10.90;99.90
14521;DHT22;7347;50.844;4.490;2023-04-06T12:36:37;10.90;99.90
14521;DHT22;7347;50.844;4.490;2023-04-06T12:39:04;10.90;99.90
14521;DHT22;7347;50.844;4.490;2023-04-06T12:41:31;10.80;99.90
14521;DHT22;7347;50.844;4.490;2023-04-06T12:43:59;10.50;99.90
14521;DHT22;7347;50.844;4.490;2023-04-06T12:46:27;10.40;99.90
14521;DHT22;7347;50.844;4.490;2023-04-06T12:48:55;10.60;99.90
14521;DHT22;7347;50.844;4.490;2023-04-06T12:51:23;10.50;99.90
14521;DHT22;7347;50.844;4.490;2023-04-06T12:53:50;10.40;99.90
14521;DHT22;7347;50.844;4.490;2023-04-06T12:56:18;10.40;99.90
14521;DHT22;7347;50.844;4.490;2023-04-06T12:58:46;10.30;99.90
14521;DHT22;7347;50.844;4.490;2023-04-06T13:01:14;10.10;99.90
14521;DHT22;7347;50.844;4.490;2023-04-06T13:03:43;10.00;99.90
14521;DHT22;7347;50.844;4.490;2023-04-06T13:06:10;9.90;99.90
14521;DHT22;7347;50.844;4.490;2023-04-06T13:08:38;9.90;99.90
14521;DHT22;7347;50.844;4.490;2023-04-06T13:11:06;9.90;99.90
14521;DHT22;7347;50.844;4.490;2023-04-06T13:13:34;9.90;99.90
14521;DHT22;7347;50.844;4.490;2023-04-06T13:16:03;9.80;99.90
14521;DHT22;7347;50.844;4.490;2023-04-06T13:18:30;9.70;99.90
14521;DHT22;7347;50.844;4.490;2023-04-06T13:20:59;9.60;99.90
14521;DHT22;7347;50.844;4.490;2023-04-06T13:23:26;9.70;99.90
14521;DHT22;7347;50.844;4.490;2023-04-06T13:26:00;9.60;99.90
14521;DHT22;7347;50.844;4.490;2023-04-06T13:28:27;9.60;99.90
14521;DHT22;7347;50.844;4.490;2023-04-06T13:30:55;9.40;99.90
14521;DHT22;7347;50.844;4.490;2023-04-06T13:33:22;9.40;99.90
14521;DHT22;7347;50.844;4.490;2023-04-06T13:35:49;9.50;99.90
14521;DHT22;7347;50.844;4.490;2023-04-06T13:38:18;9.50;99.90
14521;DHT22;7347;50.844;4.490;2023-04-06T13:40:45;9.50;99.90
14521;DHT22;7347;50.844;4.490;2023-04-06T13:43:12;9.60;99.90
14521;DHT22;7347;50.844;4.490;2023-04-06T13:45:39;9.60;99.90
14521;DHT22;7347;50.844;4.490;2023-04-06T13:48:06;9.80;99.90
14521;DHT22;7347;50.844;4.490;2023-04-06T13:50:33;9.70;99.90
14521;DHT22;7347;50.844;4.490;2023-04-06T13:53:00;9.70;99.90
14521;DHT22;7347;50.844;4.490;2023-04-06T13:55:28;9.70;99.90
14521;DHT22;7347;50.844;4.490;2023-04-06T13:57:56;9.60;99.90
14521;DHT22;7347;50.844;4.490;2023-04-06T14:00:24;9.70;99.90
14521;DHT22;7347;50.844;4.490;2023-04-06T14:02:50;9.70;99.90
14521;DHT22;7347;50.844;4.490;2023-04-06T14:05:19;9.70;99.90
14521;DHT22;7347;50.844;4.490;2023-04-06T14:07:46;9.60;99.90
14521;DHT22;7347;50.844;4.490;2023-04-06T14:10:13;9.60;99.90
14521;DHT22;7347;50.844;4.490;2023-04-06T14:12:42;9.60;99.90
14521;DHT22;7347;50.844;4.490;2023-04-06T14:15:11;9.70;99.90
14521;DHT22;7347;50.844;4.490;2023-04-06T14:17:38;9.70;99.90
14521;DHT22;7347;50.844;4.490;2023-04-06T14:20:06;9.60;99.90
14521;DHT22;7347;50.844;4.490;2023-04-06T14:22:33;9.70;99.90
14521;DHT22;7347;50.844;4.490;2023-04-06T14:25:00;9.70;99.90
14521;DHT22;7347;50.844;4.490;2023-04-06T14:27:27;9.80;99.90
14521;DHT22;7347;50.844;4.490;2023-04-06T14:29:55;9.80;99.90
14521;DHT22;7347;50.844;4.490;2023-04-06T14:32:22;9.90;99.90
14521;DHT22;7347;50.844;4.490;2023-04-06T14:34:50;10.00;99.90
14521;DHT22;7347;50.844;4.490;2023-04-06T14:37:17;10.10;99.90
14521;DHT22;7347;50.844;4.490;2023-04-06T14:39:44;10.00;99.90
14521;DHT22;7347;50.844;4.490;2023-04-06T14:42:11;10.10;99.90
14521;DHT22;7347;50.844;4.490;2023-04-06T14:44:38;10.00;99.90
14521;DHT22;7347;50.844;4.490;2023-04-06T14:47:09;10.10;99.90
14521;DHT22;7347;50.844;4.490;2023-04-06T14:49:36;10.20;99.90
14521;DHT22;7347;50.844;4.490;2023-04-06T14:52:04;10.10;99.90
14521;DHT22;7347;50.844;4.490;2023-04-06T14:54:31;10.10;99.90
14521;DHT22;7347;50.844;4.490;2023-04-06T14:56:58;10.10;99.90
14521;DHT22;7347;50.844;4.490;2023-04-06T14:59:26;10.20;99.90
14521;DHT22;7347;50.844;4.490;2023-04-06T15:01:52;10.20;99.90
14521;DHT22;7347;50.844;4.490;2023-04-06T15:04:21;10.20;99.90
14521;DHT22;7347;50.844;4.490;2023-04-06T15:06:47;10.20;99.90
14521;DHT22;7347;50.844;4.490;2023-04-06T15:09:14;10.20;99.90
14521;DHT22;7347;50.844;4.490;2023-04-06T15:11:41;10.20;99.90
14521;DHT22;7347;50.844;4.490;2023-04-06T15:14:08;10.30;99.90
14521;DHT22;7347;50.844;4.490;2023-04-06T15:16:35;10.40;99.90
14521;DHT22;7347;50.844;4.490;2023-04-06T15:19:02;10.30;99.90
14521;DHT22;7347;50.844;4.490;2023-04-06T15:21:30;10.60;99.90
14521;DHT22;7347;50.844;4.490;2023-04-06T15:23:57;10.70;99.90
14521;DHT22;7347;50.844;4.490;2023-04-06T15:26:24;10.80;99.90
14521;DHT22;7347;50.844;4.490;2023-04-06T15:28:51;10.90;99.90
14521;DHT22;7347;50.844;4.490;2023-04-06T15:31:19;10.80;99.90
14521;DHT22;7347;50.844;4.490;2023-04-06T15:33:46;10.70;99.90
14521;DHT22;7347;50.844;4.490;2023-04-06T15:36:22;10.70;99.90
14521;DHT22;7347;50.844;4.490;2023-04-06T15:38:51;10.80;99.90
14521;DHT22;7347;50.844;4.490;2023-04-06T15:41:18;10.80;99.90
14521;DHT22;7347;50.844;4.490;2023-04-06T15:43:45;10.90;99.90
14521;DHT22;7347;50.844;4.490;2023-04-06T15:46:12;10.90;99.90
14521;DHT22;7347;50.844;4.490;2023-04-06T15:48:40;10.90;99.90
14521;DHT22;7347;50.844;4.490;2023-04-06T15:51:07;10.90;99.90
14521;DHT22;7347;50.844;4.490;2023-04-06T15:53:34;10.80;99.90
14521;DHT22;7347;50.844;4.490;2023-04-06T15:56:04;10.80;99.90
14521;DHT22;7347;50.844;4.490;2023-04-06T15:58:32;10.80;99.90
14521;DHT22;7347;50.844;4.490;2023-04-06T16:00:59;10.70;99.90
14521;DHT22;7347;50.844;4.490;2023-04-06T16:03:26;10.80;99.90
14521;DHT22;7347;50.844;4.490;2023-04-06T16:05:53;10.80;99.90
14521;DHT22;7347;50.844;4.490;2023-04-06T16:08:20;10.70;99.90
14521;DHT22;7347;50.844;4.490;2023-04-06T16:10:47;10.70;99.90
14521;DHT22;7347;50.844;4.490;2023-04-06T16:13:15;10.70;99.90
14521;DHT22;7347;50.844;4.490;2023-04-06T16:15:42;10.80;99.90
14521;DHT22;7347;50.844;4.490;2023-04-06T16:18:09;10.80;99.90
14521;DHT22;7347;50.844;4.490;2023-04-06T16:20:36;10.90;99.90
14521;DHT22;7347;50.844;4.490;2023-04-06T16:23:03;11.00;99.90
14521;DHT22;7347;50.844;4.490;2023-04-06T16:25:30;11.10;99.90
14521;DHT22;7347;50.844;4.490;2023-04-06T16:27:57;11.20;99.90
14521;DHT22;7347;50.844;4.490;2023-04-06T16:30:25;11.30;99.90
14521;DHT22;7347;50.844;4.490;2023-04-06T16:32:55;11.40;99.90
14521;DHT22;7347;50.844;4.490;2023-04-06T16:35:22;11.40;99.90
14521;DHT22;7347;50.844;4.490;2023-04-06T16:37:50;11.50;99.90
14521;DHT22;7347;50.844;4.490;2023-04-06T16:40:17;11.60;99.90
14521;DHT22;7347;50.844;4.490;2023-04-06T16:42:45;11.60;99.90
14521;DHT22;7347;50.844;4.490;2023-04-06T16:45:12;11.60;99.90
14521;DHT22;7347;50.844;4.490;2023-04-06T16:47:41;11.50;99.90
14521;DHT22;7347;50.844;4.490;2023-04-06T16:50:09;11.50;99.90
14521;DHT22;7347;50.844;4.490;2023-04-06T16:52:36;11.50;99.90
14521;DHT22;7347;50.844;4.490;2023-04-06T16:55:03;11.40;99.90
14521;DHT22;7347;50.844;4.490;2023-04-06T16:57:30;11.40;99.90
14521;DHT22;7347;50.844;4.490;2023-04-06T16:59:59;11.40;99.90
14521;DHT22;7347;50.844;4.490;2023-04-06T17:02:25;11.30;99.90
14521;DHT22;7347;50.844;4.490;2023-04-06T17:04:54;11.20;99.90
14521;DHT22;7347;50.844;4.490;2023-04-06T17:07:20;11.10;99.90
14521;DHT22;7347;50.844;4.490;2023-04-06T17:09:50;11.10;99.90
14521;DHT22;7347;50.844;4.490;2023-04-06T17:12:17;11.00;99.90
14521;DHT22;7347;50.844;4.490;2023-04-06T17:14:44;11.10;99.90
14521;DHT22;7347;50.844;4.490;2023-04-06T17:17:11;11.10;99.90
14521;DHT22;7347;50.844;4.490;2023-04-06T17:19:38;11.20;99.90
14521;DHT22;7347;50.844;4.490;2023-04-06T17:22:06;11.10;99.90
14521;DHT22;7347;50.844;4.490;2023-04-06T17:24:33;11.20;99.90
14521;DHT22;7347;50.844;4.490;2023-04-06T17:26:59;11.10;99.90
14521;DHT22;7347;50.844;4.490;2023-04-06T17:29:27;11.10;99.90
14521;DHT22;7347;50.844;4.490;2023-04-06T17:31:54;11.10;99.90
14521;DHT22;7347;50.844;4.490;2023-04-06T17:34:20;11.00;99.90
14521;DHT22;7347;50.844;4.490;2023-04-06T17:36:47;11.00;99.90
14521;DHT22;7347;50.844;4.490;2023-04-06T17:39:15;11.00;99.90
14521;DHT22;7347;50.844;4.490;2023-04-06T17:41:43;11.10;99.90
14521;DHT22;7347;50.844;4.490;2023-04-06T17:44:09;11.10;99.90
14521;DHT22;7347;50.844;4.490;2023-04-06T17:46:36;11.10;99.90
14521;DHT22;7347;50.844;4.490;2023-04-06T17:49:03;11.20;99.90
14521;DHT22;7347;50.844;4.490;2023-04-06T17:51:32;11.30;99.90
14521;DHT22;7347;50.844;4.490;2023-04-06T17:53:59;11.20;99.90
14521;DHT22;7347;50.844;4.490;2023-04-06T17:56:27;11.20;99.90
14521;DHT22;7347;50.844;4.490;2023-04-06T17:58:54;11.20;99.90
14521;DHT22;7347;50.844;4.490;2023-04-06T18:01:22;11.30;99.90
14521;DHT22;7347;50.844;4.490;2023-04-06T18:03:49;11.20;99.90
14521;DHT22;7347;50.844;4.490;2023-04-06T18:06:16;11.20;99.90
14521;DHT22;7347;50.844;4.490;2023-04-06T18:08:42;11.20;99.90
14521;DHT22;7347;50.844;4.490;2023-04-06T18:11:14;11.10;99.90
14521;DHT22;7347;50.844;4.490;2023-04-06T18:13:43;11.00;99.90
14521;DHT22;7347;50.844;4.490;2023-04-06T18:16:09;10.90;99.90
14521;DHT22;7347;50.844;4.490;2023-04-06T18:18:36;10.90;99.90
14521;DHT22;7347;50.844;4.490;2023-04-06T18:21:04;10.80;99.90
14521;DHT22;7347;50.844;4.490;2023-04-06T18:23:32;10.80;99.90
14521;DHT22;7347;50.844;4.490;2023-04-06T18:25:59;10.70;99.90
14521;DHT22;7347;50.844;4.490;2023-04-06T18:28:26;10.70;99.90
14521;DHT22;7347;50.844;4.490;2023-04-06T18:30:54;10.70;99.90
14521;DHT22;7347;50.844;4.490;2023-04-06T18:33:21;10.70;99.90
14521;DHT22;7347;50.844;4.490;2023-04-06T18:35:48;10.70;99.90
14521;DHT22;7347;50.844;4.490;2023-04-06T18:38:14;10.60;99.90
14521;DHT22;7347;50.844;4.490;2023-04-06T18:40:41;10.60;99.90
14521;DHT22;7347;50.844;4.490;2023-04-06T18:43:08;10.70;99.90
14521;DHT22;7347;50.844;4.490;2023-04-06T18:45:36;10.70;99.90
14521;DHT22;7347;50.844;4.490;2023-04-06T18:48:05;10.70;99.90
14521;DHT22;7347;50.844;4.490;2023-04-06T18:50:32;10.70;99.90
14521;DHT22;7347;50.844;4.490;2023-04-06T18:52:59;10.70;99.90
14521;DHT22;7347;50.844;4.490;2023-04-06T18:55:26;10.80;99.90
14521;DHT22;7347;50.844;4.490;2023-04-06T18:57:53;10.80;99.90
14521;DHT22;7347;50.844;4.490;2023-04-06T19:00:20;10.60;99.90
14521;DHT22;7347;50.844;4.490;2023-04-06T19:02:47;10.60;99.90
14521;DHT22;7347;50.844;4.490;2023-04-06T19:05:15;10.70;99.90
14521;DHT22;7347;50.844;4.490;2023-04-06T19:07:42;10.60;99.90
14521;DHT22;7347;50.844;4.490;2023-04-06T19:10:12;10.70;99.90
14521;DHT22;7347;50.844;4.490;2023-04-06T19:12:39;10.70;99.90
14521;DHT22;7347;50.844;4.490;2023-04-06T19:15:07;10.70;99.90
14521;DHT22;7347;50.844;4.490;2023-04-06T19:17:34;10.80;99.90
14521;DHT22;7347;50.844;4.490;2023-04-06T19:20:02;10.80;99.90
14521;DHT22;7347;50.844;4.490;2023-04-06T19:22:32;10.90;99.90
14521;DHT22;7347;50.844;4.490;2023-04-06T19:24:59;10.90;99.90
14521;DHT22;7347;50.844;4.490;2023-04-06T19:27:26;10.90;99.90
14521;DHT22;7347;50.844;4.490;2023-04-06T19:29:53;10.90;99.90
14521;DHT22;7347;50.844;4.490;2023-04-06T19:32:20;10.90;99.90
14521;DHT22;7347;50.844;4.490;2023-04-06T19:34:47;10.80;99.90
14521;DHT22;7347;50.844;4.490;2023-04-06T19:37:14;10.80;99.90
14521;DHT22;7347;50.844;4.490;2023-04-06T19:39:42;10.90;99.90
14521;DHT22;7347;50.844;4.490;2023-04-06T19:42:10;10.90;99.90
14521;DHT22;7347;50.844;4.490;2023-04-06T19:44:38;10.90;99.90
14521;DHT22;7347;50.844;4.490;2023-04-06T19:47:05;10.80;99.90
14521;DHT22;7347;50.844;4.490;2023-04-06T19:49:32;10.80;99.90
14521;DHT22;7347;50.844;4.490;2023-04-06T19:51:59;10.70;99.90
14521;DHT22;7347;50.844;4.490;2023-04-06T19:54:25;10.70;99.90
14521;DHT22;7347;50.844;4.490;2023-04-06T19:56:53;10.70;99.90
14521;DHT22;7347;50.844;4.490;2023-04-06T19:59:22;10.70;99.90
14521;DHT22;7347;50.844;4.490;2023-04-06T20:01:49;10.60;99.90
14521;DHT22;7347;50.844;4.490;2023-04-06T20:04:15;10.60;99.90
14521;DHT22;7347;50.844;4.490;2023-04-06T20:06:42;10.70;99.90
14521;DHT22;7347;50.844;4.490;2023-04-06T20:09:09;10.70;99.90
14521;DHT22;7347;50.844;4.490;2023-04-06T20:11:36;10.80;99.90
14521;DHT22;7347;50.844;4.490;2023-04-06T20:14:05;10.80;99.90
14521;DHT22;7347;50.844;4.490;2023-04-06T20:16:32;10.70;99.90
14521;DHT22;7347;50.844;4.490;2023-04-06T20:18:58;10.70;99.90
14521;DHT22;7347;50.844;4.490;2023-04-06T20:21:25;10.80;99.90
14521;DHT22;7347;50.844;4.490;2023-04-06T20:23:52;10.70;99.90
14521;DHT22;7347;50.844;4.490;2023-04-06T20:26:19;10.70;99.90
